createdAt,value
2022-12-01T00:01:55.104Z,47.10
2022-12-01T00:04:25.127Z,34.40
2022-12-01T00:06:55.039Z,36.00
2022-12-01T00:09:44.805Z,32.50
2022-12-01T00:12:14.100Z,37.40
2022-12-01T00:14:44.880Z,36.40
2022-12-01T00:17:15.670Z,36.00
2022-12-01T00:19:47.304Z,40.40
2022-12-01T00:22:19.067Z,37.10
2022-12-01T00:24:49.634Z,37.10
2022-12-01T00:27:20.339Z,33.40
2022-12-01T00:29:51.351Z,31.00
2022-12-01T00:32:21.985Z,30.20
2022-12-01T00:34:52.772Z,30.20
2022-12-01T00:37:23.849Z,30.00
2022-12-01T00:39:58.869Z,29.80
2022-12-01T00:42:31.457Z,30.90
2022-12-01T00:45:02.098Z,28.70
2022-12-01T00:47:33.197Z,29.50
2022-12-01T00:50:04.923Z,28.90
2022-12-01T00:52:36.797Z,27.50
2022-12-01T00:55:07.383Z,29.40
2022-12-01T00:57:39.081Z,28.00
2022-12-01T01:00:11.289Z,29.60
2022-12-01T01:02:42.709Z,30.10
2022-12-01T01:05:14.159Z,30.00
2022-12-01T01:07:44.832Z,29.50
2022-12-01T01:10:15.990Z,31.10
2022-12-01T01:12:46.504Z,30.00
2022-12-01T01:15:17.119Z,29.00
2022-12-01T01:17:48.095Z,36.00
2022-12-01T01:20:19.018Z,31.00
2022-12-01T01:22:50.088Z,34.80
2022-12-01T01:25:20.615Z,32.00
2022-12-01T01:27:52.138Z,32.90
2022-12-01T01:30:24.038Z,29.20
2022-12-01T01:32:55.086Z,30.30
2022-12-01T01:35:26.337Z,30.70
2022-12-01T01:37:57.985Z,31.50
2022-12-01T01:40:29.215Z,28.60
2022-12-01T01:43:01.066Z,27.50
2022-12-01T01:45:31.959Z,28.10
2022-12-01T01:48:05.949Z,29.10
2022-12-01T01:50:37.853Z,33.20
2022-12-01T01:53:14.781Z,35.50
2022-12-01T01:55:45.761Z,31.30
2022-12-01T01:58:15.750Z,36.60
2022-12-01T02:00:47.119Z,30.30
2022-12-01T02:03:20.271Z,31.60
2022-12-01T02:05:51.879Z,34.30
2022-12-01T02:08:23.277Z,34.80
2022-12-01T02:11:07.362Z,35.40
2022-12-01T02:13:48.173Z,30.90
2022-12-01T02:16:30.348Z,28.90
2022-12-01T02:19:43.870Z,26.60
2022-12-01T02:22:42.770Z,28.30
2022-12-01T02:25:30.812Z,30.90
2022-12-01T02:28:48.335Z,25.60
2022-12-01T02:31:40.036Z,33.70
2022-12-01T02:34:41.170Z,43.00
2022-12-01T02:37:34.670Z,46.40
2022-12-01T02:40:20.345Z,39.60
2022-12-01T02:43:03.512Z,37.00
2022-12-01T02:45:56.573Z,31.00
2022-12-01T02:48:29.964Z,28.60
2022-12-01T02:51:07.577Z,28.20
2022-12-01T02:53:38.572Z,28.10
2022-12-01T02:56:13.157Z,30.10
2022-12-01T02:58:45.852Z,31.80
2022-12-01T03:01:45.492Z,37.30
2022-12-01T03:04:37.469Z,32.00
2022-12-01T03:07:46.550Z,28.80
2022-12-01T03:10:54.024Z,29.00
2022-12-01T03:13:34.524Z,28.50
2022-12-01T03:16:30.286Z,26.80
2022-12-01T03:19:08.283Z,46.60
2022-12-01T03:24:22.533Z,48.80
2022-12-01T03:26:57.870Z,36.20
2022-12-01T03:30:00.658Z,33.80
2022-12-01T03:32:50.228Z,31.90
2022-12-01T03:35:45.383Z,32.30
2022-12-01T03:38:22.289Z,30.10
2022-12-01T03:41:10.090Z,27.00
2022-12-01T03:43:50.311Z,24.00
2022-12-01T03:46:34.443Z,26.50
2022-12-01T03:49:06.169Z,32.60
2022-12-01T03:51:44.006Z,35.40
2022-12-01T03:54:33.999Z,43.20
2022-12-01T03:57:08.823Z,38.80
2022-12-01T03:59:46.713Z,36.80
2022-12-01T04:02:17.984Z,35.30
2022-12-01T04:04:49.188Z,32.30
2022-12-01T04:07:21.043Z,29.70
2022-12-01T04:09:52.309Z,30.20
2022-12-01T04:12:36.963Z,25.50
2022-12-01T04:15:15.370Z,26.60
2022-12-01T04:17:46.352Z,25.10
2022-12-01T04:20:18.293Z,24.60
2022-12-01T04:22:49.638Z,25.00
2022-12-01T04:25:20.064Z,26.50
2022-12-01T04:27:50.936Z,34.60
2022-12-01T04:30:21.578Z,35.70
2022-12-01T04:32:51.482Z,40.80
2022-12-01T04:35:24.339Z,42.00
2022-12-01T04:37:55.440Z,42.00
2022-12-01T04:40:25.958Z,44.30
2022-12-01T04:42:56.927Z,49.00
2022-12-01T04:45:27.654Z,45.10
2022-12-01T04:48:02.119Z,51.10
2022-12-01T04:50:32.227Z,42.40
2022-12-01T04:53:00.721Z,41.50
2022-12-01T04:55:31.718Z,34.70
2022-12-01T04:58:03.165Z,32.00
2022-12-01T05:00:33.997Z,32.30
2022-12-01T05:03:03.849Z,33.80
2022-12-01T05:05:33.556Z,32.30
2022-12-01T05:08:03.889Z,34.40
2022-12-01T05:10:38.921Z,32.80
2022-12-01T05:13:07.831Z,34.80
2022-12-01T05:15:37.797Z,38.50
2022-12-01T05:18:07.798Z,51.10
2022-12-01T05:20:56.757Z,55.40
2022-12-01T05:23:32.489Z,47.50
2022-12-01T05:26:05.248Z,41.00
2022-12-01T05:28:36.462Z,43.80
2022-12-01T05:31:06.555Z,39.00
2022-12-01T05:33:36.850Z,39.50
2022-12-01T05:36:05.811Z,40.30
2022-12-01T05:38:38.539Z,39.10
2022-12-01T05:41:08.587Z,31.40
2022-12-01T05:43:38.729Z,36.70
2022-12-01T05:46:08.882Z,37.80
2022-12-01T05:48:39.083Z,39.30
2022-12-01T05:51:10.624Z,35.00
2022-12-01T05:53:40.382Z,38.90
2022-12-01T05:56:10.551Z,37.10
2022-12-01T05:58:40.844Z,38.50
2022-12-01T06:01:11.153Z,43.00
2022-12-01T06:03:40.831Z,66.80
2022-12-01T06:06:11.193Z,56.30
2022-12-01T06:08:41.110Z,33.30
2022-12-01T06:11:11.307Z,37.80
2022-12-01T06:13:40.035Z,36.70
2022-12-01T06:16:10.123Z,40.90
2022-12-01T06:18:41.969Z,45.10
2022-12-01T06:21:12.027Z,64.30
2022-12-01T06:23:41.397Z,68.20
2022-12-01T06:26:11.782Z,45.40
2022-12-01T06:28:41.511Z,48.50
2022-12-01T06:31:11.187Z,66.20
2022-12-01T06:33:40.935Z,47.10
2022-12-01T06:36:11.232Z,55.10
2022-12-01T06:38:41.057Z,79.60
2022-12-01T06:41:10.716Z,67.10
2022-12-01T06:43:41.119Z,66.40
2022-12-01T06:46:11.170Z,89.00
2022-12-01T06:48:39.629Z,182.00
2022-12-01T06:51:11.033Z,225.70
2022-12-01T06:53:41.380Z,240.50
2022-12-01T06:56:11.136Z,155.30
2022-12-01T06:58:41.533Z,106.80
2022-12-01T07:01:14.671Z,76.10
2022-12-01T07:03:49.102Z,77.70
2022-12-01T07:06:19.955Z,72.90
2022-12-01T07:08:49.761Z,66.80
2022-12-01T07:11:21.950Z,66.80
2022-12-01T07:13:56.396Z,67.60
2022-12-01T07:16:26.550Z,67.80
2022-12-01T07:18:55.100Z,60.40
2022-12-01T07:21:25.266Z,63.20
2022-12-01T07:23:55.679Z,64.20
2022-12-01T07:26:25.094Z,61.80
2022-12-01T07:28:54.819Z,65.20
2022-12-01T07:31:24.619Z,69.40
2022-12-01T07:33:56.398Z,97.70
2022-12-01T07:36:26.421Z,80.40
2022-12-01T07:38:56.546Z,92.80
2022-12-01T07:41:26.619Z,76.50
2022-12-01T07:43:58.907Z,62.20
2022-12-01T07:46:29.455Z,67.50
2022-12-01T07:48:59.927Z,99.90
2022-12-01T07:51:30.155Z,98.10
2022-12-01T07:54:06.752Z,82.60
2022-12-01T07:56:36.364Z,74.60
2022-12-01T07:59:06.688Z,36.80
2022-12-01T08:01:39.261Z,30.90
2022-12-01T08:04:12.120Z,32.10
2022-12-01T08:06:42.133Z,28.80
2022-12-01T08:09:12.226Z,26.80
2022-12-01T08:11:42.517Z,26.20
2022-12-01T08:14:12.524Z,29.60
2022-12-01T08:16:41.838Z,26.10
2022-12-01T08:19:11.541Z,22.70
2022-12-01T08:21:42.366Z,22.00
2022-12-01T08:24:12.384Z,19.80
2022-12-01T08:26:41.063Z,20.00
2022-12-01T08:29:13.612Z,19.90
2022-12-01T08:31:47.013Z,20.80
2022-12-01T08:34:16.729Z,20.40
2022-12-01T08:36:45.232Z,20.30
2022-12-01T08:39:16.496Z,21.10
2022-12-01T08:41:48.276Z,19.50
2022-12-01T08:44:18.150Z,22.30
2022-12-01T08:46:47.992Z,18.60
2022-12-01T08:49:17.892Z,19.90
2022-12-01T08:51:47.621Z,20.70
2022-12-01T08:54:17.328Z,21.10
2022-12-01T08:56:47.537Z,19.70
2022-12-01T08:59:17.793Z,18.60
2022-12-01T09:01:54.521Z,20.30
2022-12-01T09:04:27.836Z,22.30
2022-12-01T09:06:58.445Z,23.60
2022-12-01T09:09:28.989Z,22.10
2022-12-01T09:11:58.840Z,23.50
2022-12-01T09:14:28.508Z,21.50
2022-12-01T09:16:58.176Z,22.10
2022-12-01T09:19:29.102Z,23.80
2022-12-01T09:21:59.615Z,24.30
2022-12-01T09:24:29.791Z,24.00
2022-12-01T09:27:00.843Z,24.90
2022-12-01T09:29:31.771Z,24.30
2022-12-01T09:32:01.895Z,26.00
2022-12-01T09:34:31.883Z,26.20
2022-12-01T09:37:01.183Z,28.40
2022-12-01T09:39:30.925Z,26.40
2022-12-01T09:42:19.047Z,29.30
2022-12-01T09:47:30.625Z,25.80
2022-12-01T09:52:46.769Z,30.00
2022-12-01T09:55:17.785Z,29.20
2022-12-01T09:57:55.938Z,28.20
2022-12-01T10:00:46.756Z,28.50
2022-12-01T10:03:31.315Z,30.00
2022-12-01T10:06:27.357Z,30.90
2022-12-01T10:09:14.412Z,30.00
2022-12-01T10:11:46.364Z,30.90
2022-12-01T10:14:20.128Z,26.50
2022-12-01T10:17:00.147Z,20.90
2022-12-01T10:19:42.429Z,10.50
2022-12-01T10:22:39.878Z,8.30
2022-12-01T10:25:21.099Z,7.40
2022-12-01T10:28:29.599Z,8.20
2022-12-01T10:31:20.952Z,8.00
2022-12-01T10:34:04.413Z,6.70
2022-12-01T10:36:35.136Z,6.50
2022-12-01T10:39:07.508Z,7.00
2022-12-01T10:41:39.845Z,7.60
2022-12-01T10:44:10.677Z,7.50
2022-12-01T10:46:56.216Z,7.20
2022-12-01T10:49:38.234Z,8.10
2022-12-01T10:52:08.318Z,10.80
2022-12-01T10:54:41.473Z,10.40
2022-12-01T10:57:18.097Z,9.90
2022-12-01T10:59:57.238Z,10.80
2022-12-01T11:02:29.943Z,9.80
2022-12-01T11:05:06.706Z,10.10
2022-12-01T11:07:48.223Z,10.20
2022-12-01T11:10:29.600Z,9.40
2022-12-01T11:13:07.166Z,8.60
2022-12-01T11:15:49.913Z,8.20
2022-12-01T11:18:21.457Z,7.70
2022-12-01T11:21:14.782Z,8.50
2022-12-01T11:23:52.578Z,7.20
2022-12-01T11:26:28.172Z,7.60
2022-12-01T11:29:00.915Z,6.60
2022-12-01T11:31:48.342Z,6.80
2022-12-01T11:34:27.517Z,5.90
2022-12-01T11:37:02.887Z,6.20
2022-12-01T11:39:42.128Z,6.50
2022-12-01T11:42:31.745Z,5.50
2022-12-01T11:45:27.500Z,6.10
2022-12-01T11:48:13.130Z,5.60
2022-12-01T11:50:45.545Z,5.70
2022-12-01T11:53:30.498Z,5.50
2022-12-01T11:56:22.905Z,5.90
2022-12-01T11:59:03.580Z,8.10
2022-12-01T12:02:01.913Z,6.10
2022-12-01T12:04:46.401Z,5.60
2022-12-01T12:07:40.175Z,6.60
2022-12-01T12:10:37.880Z,5.10
2022-12-01T12:13:17.281Z,6.00
2022-12-01T12:16:11.508Z,5.40
2022-12-01T12:18:46.263Z,5.20
2022-12-01T12:21:34.145Z,6.00
2022-12-01T12:24:31.732Z,5.90
2022-12-01T12:27:15.804Z,6.50
2022-12-01T12:30:06.716Z,6.10
2022-12-01T12:33:02.597Z,6.40
2022-12-01T12:36:06.163Z,6.20
2022-12-01T12:38:55.438Z,6.40
2022-12-01T12:41:39.625Z,23.40
2022-12-01T12:44:16.397Z,7.10
2022-12-01T12:47:31.341Z,6.10
2022-12-01T12:50:26.587Z,8.50
2022-12-01T12:53:03.999Z,7.20
2022-12-01T12:55:43.492Z,12.10
2022-12-01T12:59:04.406Z,6.10
2022-12-01T13:01:44.685Z,7.80
2022-12-01T13:04:25.034Z,5.70
2022-12-01T13:07:03.991Z,7.70
2022-12-01T13:09:42.426Z,6.50
2022-12-01T13:12:40.901Z,6.20
2022-12-01T13:15:21.821Z,7.90
2022-12-01T13:18:04.363Z,6.70
2022-12-01T13:20:37.063Z,7.60
2022-12-01T13:23:15.066Z,8.50
2022-12-01T13:25:49.308Z,11.40
2022-12-01T13:28:24.219Z,7.20
2022-12-01T13:31:10.672Z,7.80
2022-12-01T13:33:47.079Z,7.30
2022-12-01T13:36:45.595Z,7.80
2022-12-01T13:39:22.211Z,7.90
2022-12-01T13:42:07.936Z,8.50
2022-12-01T13:44:40.840Z,8.40
2022-12-01T13:47:14.026Z,8.30
2022-12-01T13:49:45.634Z,9.50
2022-12-01T13:52:28.555Z,8.80
2022-12-01T13:55:27.506Z,9.00
2022-12-01T13:57:57.755Z,8.70
2022-12-01T14:00:31.037Z,10.50
2022-12-01T14:03:16.871Z,9.00
2022-12-01T14:06:06.007Z,10.00
2022-12-01T14:08:48.323Z,7.90
2022-12-01T14:11:25.502Z,9.00
2022-12-01T14:14:26.060Z,12.10
2022-12-01T14:17:01.307Z,12.00
2022-12-01T14:19:53.071Z,9.50
2022-12-01T14:22:44.425Z,10.70
2022-12-01T14:25:33.094Z,11.90
2022-12-01T14:28:04.363Z,11.00
2022-12-01T14:30:46.986Z,13.40
2022-12-01T14:33:46.664Z,17.20
2022-12-01T14:36:37.870Z,13.50
2022-12-01T14:39:22.635Z,13.30
2022-12-01T14:41:56.929Z,15.00
2022-12-01T14:44:48.628Z,16.10
2022-12-01T14:47:38.219Z,14.80
2022-12-01T14:50:21.106Z,12.50
2022-12-01T14:53:07.505Z,11.00
2022-12-01T14:55:48.348Z,12.40
2022-12-01T14:58:25.618Z,11.20
2022-12-01T15:01:03.925Z,33.20
2022-12-01T15:03:42.939Z,17.10
2022-12-01T15:06:19.210Z,15.50
2022-12-01T15:09:32.311Z,14.40
2022-12-01T15:12:00.541Z,15.30
2022-12-01T15:14:35.838Z,20.70
2022-12-01T15:17:09.255Z,23.50
2022-12-01T15:19:44.297Z,27.20
2022-12-01T15:22:17.806Z,49.60
2022-12-01T15:24:49.670Z,46.60
2022-12-01T15:27:30.678Z,43.60
2022-12-01T15:30:05.080Z,31.10
2022-12-01T15:32:41.312Z,21.90
2022-12-01T15:35:20.259Z,80.60
2022-12-01T15:37:51.221Z,68.80
2022-12-01T15:41:06.145Z,22.20
2022-12-01T15:43:28.577Z,15.20
2022-12-01T15:46:00.601Z,12.70
2022-12-01T15:48:36.111Z,18.00
2022-12-01T15:51:18.947Z,18.30
2022-12-01T15:53:55.979Z,14.50
2022-12-01T15:56:29.524Z,40.70
2022-12-01T15:59:09.738Z,49.80
2022-12-01T16:01:41.344Z,40.90
2022-12-01T16:04:23.193Z,34.50
2022-12-01T16:07:01.072Z,20.60
2022-12-01T16:09:59.578Z,45.00
2022-12-01T16:12:34.075Z,23.60
2022-12-01T16:15:15.839Z,29.90
2022-12-01T16:17:53.022Z,29.40
2022-12-01T16:20:26.907Z,46.10
2022-12-01T16:22:59.554Z,20.90
2022-12-01T16:25:33.891Z,16.40
2022-12-01T16:28:05.744Z,25.10
2022-12-01T16:30:40.128Z,36.60
2022-12-01T16:33:22.551Z,47.20
2022-12-01T16:35:52.971Z,46.20
2022-12-01T16:38:24.851Z,39.50
2022-12-01T16:40:59.259Z,47.60
2022-12-01T16:43:30.234Z,60.50
2022-12-01T16:46:03.974Z,61.10
2022-12-01T16:48:35.342Z,60.50
2022-12-01T16:51:07.937Z,71.50
2022-12-01T16:53:37.977Z,81.10
2022-12-01T16:56:13.013Z,64.70
2022-12-01T16:58:45.069Z,76.70
2022-12-01T17:01:14.729Z,75.20
2022-12-01T17:03:44.972Z,77.90
2022-12-01T17:06:19.241Z,60.80
2022-12-01T17:08:49.263Z,79.70
2022-12-01T17:11:18.900Z,91.00
2022-12-01T17:13:48.960Z,103.90
2022-12-01T17:16:19.214Z,101.30
2022-12-01T17:18:49.225Z,102.30
2022-12-01T17:21:19.011Z,106.20
2022-12-01T17:23:49.347Z,88.50
2022-12-01T17:26:20.442Z,78.50
2022-12-01T17:28:50.432Z,77.00
2022-12-01T17:31:19.031Z,75.00
2022-12-01T17:33:49.800Z,77.50
2022-12-01T17:36:20.037Z,84.50
2022-12-01T17:38:50.764Z,87.70
2022-12-01T17:41:25.928Z,76.50
2022-12-01T17:43:57.465Z,71.50
2022-12-01T17:46:27.723Z,70.40
2022-12-01T17:48:58.058Z,89.60
2022-12-01T17:51:28.594Z,80.00
2022-12-01T17:53:58.470Z,77.90
2022-12-01T17:56:28.569Z,84.90
2022-12-01T17:58:58.644Z,68.60
2022-12-01T18:01:30.364Z,68.70
2022-12-01T18:04:00.731Z,68.00
2022-12-01T18:06:30.803Z,68.90
2022-12-01T18:09:01.949Z,87.00
2022-12-01T18:11:32.118Z,98.80
2022-12-01T18:14:02.175Z,103.10
2022-12-01T18:16:33.100Z,90.70
2022-12-01T18:19:03.758Z,53.60
2022-12-01T18:21:33.761Z,45.70
2022-12-01T18:24:05.484Z,53.40
2022-12-01T18:26:34.105Z,74.70
2022-12-01T18:29:08.476Z,64.60
2022-12-01T18:31:38.382Z,71.30
2022-12-01T18:34:10.293Z,64.50
2022-12-01T18:36:42.682Z,60.90
2022-12-01T18:39:12.922Z,62.10
2022-12-01T18:41:41.551Z,47.40
2022-12-01T18:44:11.500Z,41.20
2022-12-01T18:46:41.833Z,44.20
2022-12-01T18:49:12.230Z,46.80
2022-12-01T18:51:42.193Z,62.80
2022-12-01T18:54:14.476Z,41.90
2022-12-01T18:56:45.845Z,39.40
2022-12-01T18:59:17.565Z,33.50
2022-12-01T19:01:48.926Z,34.80
2022-12-01T19:04:19.795Z,34.00
2022-12-01T19:06:49.947Z,44.90
2022-12-01T19:09:19.999Z,47.20
2022-12-01T19:11:50.159Z,46.40
2022-12-01T19:14:20.276Z,35.20
2022-12-01T19:16:50.970Z,31.30
2022-12-01T19:19:20.927Z,31.50
2022-12-01T19:21:51.415Z,34.40
2022-12-01T19:24:21.543Z,34.90
2022-12-01T19:26:51.896Z,33.90
2022-12-01T19:29:21.984Z,40.30
2022-12-01T19:31:52.351Z,35.50
2022-12-01T19:34:22.366Z,36.30
2022-12-01T19:36:54.013Z,45.70
2022-12-01T19:39:24.067Z,46.60
2022-12-01T19:41:57.675Z,37.70
2022-12-01T19:44:28.526Z,39.40
2022-12-01T19:46:58.917Z,34.80
2022-12-01T19:49:28.884Z,29.70
2022-12-01T19:51:58.982Z,31.80
2022-12-01T19:54:28.882Z,39.30
2022-12-01T19:56:59.113Z,47.50
2022-12-01T19:59:29.120Z,74.00
2022-12-01T20:01:59.306Z,77.30
2022-12-01T20:04:29.414Z,61.70
2022-12-01T20:06:59.839Z,75.90
2022-12-01T20:09:29.447Z,103.00
2022-12-01T20:11:59.510Z,112.70
2022-12-01T20:14:29.482Z,60.90
2022-12-01T20:16:59.715Z,71.70
2022-12-01T20:19:29.334Z,88.10
2022-12-01T20:21:59.450Z,85.70
2022-12-01T20:24:29.589Z,73.30
2022-12-01T20:26:59.246Z,64.00
2022-12-01T20:29:30.284Z,71.50
2022-12-01T20:32:03.246Z,71.80
2022-12-01T20:34:36.621Z,66.40
2022-12-01T20:37:06.583Z,68.10
2022-12-01T20:39:38.421Z,66.50
2022-12-01T20:42:09.898Z,98.00
2022-12-01T20:44:40.707Z,91.20
2022-12-01T20:47:11.264Z,103.30
2022-12-01T20:49:41.110Z,125.20
2022-12-01T20:52:11.375Z,147.70
2022-12-01T20:54:42.818Z,99.80
2022-12-01T20:57:12.592Z,79.10
2022-12-01T20:59:42.519Z,69.40
2022-12-01T21:02:12.568Z,69.10
2022-12-01T21:04:42.740Z,70.20
2022-12-01T21:07:12.487Z,71.70
2022-12-01T21:09:42.531Z,68.60
2022-12-01T21:12:35.777Z,71.20
2022-12-01T21:15:28.847Z,70.60
2022-12-01T21:18:17.526Z,68.70
2022-12-01T21:20:51.017Z,70.50
2022-12-01T21:23:20.697Z,64.60
2022-12-01T21:25:51.548Z,67.60
2022-12-01T21:28:24.387Z,89.40
2022-12-01T21:31:07.977Z,122.90
2022-12-01T21:33:41.297Z,119.60
2022-12-01T21:36:18.925Z,99.90
2022-12-01T21:38:56.253Z,108.30
2022-12-01T21:41:28.148Z,88.20
2022-12-01T21:44:08.461Z,82.90
2022-12-01T21:46:41.600Z,80.70
2022-12-01T21:49:20.038Z,81.10
2022-12-01T21:51:52.506Z,100.80
2022-12-01T21:54:23.090Z,88.70
2022-12-01T21:56:56.690Z,98.30
2022-12-01T21:59:26.290Z,88.20
2022-12-01T22:01:57.915Z,89.20
2022-12-01T22:04:31.690Z,86.90
2022-12-01T22:07:01.615Z,74.60
2022-12-01T22:09:35.408Z,69.00
2022-12-01T22:12:32.534Z,64.50
2022-12-01T22:15:12.628Z,65.20
2022-12-01T22:17:42.036Z,66.80
2022-12-01T22:20:23.310Z,72.30
2022-12-01T22:22:53.608Z,62.90
2022-12-01T22:25:26.751Z,66.80
2022-12-01T22:28:00.318Z,65.00
2022-12-01T22:30:30.100Z,68.50
2022-12-01T22:33:05.372Z,68.10
2022-12-01T22:35:51.170Z,73.80
2022-12-01T22:38:37.724Z,78.60
2022-12-01T22:41:16.247Z,71.90
2022-12-01T22:43:47.685Z,65.60
2022-12-01T22:46:36.274Z,62.60
2022-12-01T22:49:20.221Z,62.30
2022-12-01T22:51:56.488Z,64.30
2022-12-01T22:54:32.708Z,57.60
2022-12-01T22:57:18.956Z,62.30
2022-12-01T22:59:50.683Z,62.70
2022-12-01T23:02:34.393Z,60.40
2022-12-01T23:05:25.513Z,60.70
2022-12-01T23:07:56.429Z,60.20
2022-12-01T23:10:31.894Z,64.00
2022-12-01T23:13:14.598Z,77.30
2022-12-01T23:15:49.498Z,63.50
2022-12-01T23:18:22.829Z,76.50
2022-12-01T23:20:55.478Z,85.40
2022-12-01T23:23:34.244Z,63.00
2022-12-01T23:26:08.362Z,82.70
2022-12-01T23:28:41.695Z,70.60
2022-12-01T23:31:11.938Z,58.30
2022-12-01T23:33:41.761Z,55.00
2022-12-01T23:36:20.678Z,56.80
2022-12-01T23:38:57.928Z,55.50
2022-12-01T23:41:37.516Z,59.90
2022-12-01T23:44:39.363Z,56.00
2022-12-01T23:47:23.174Z,53.00
2022-12-01T23:50:00.447Z,53.40
2022-12-01T23:52:36.485Z,54.30
2022-12-01T23:55:20.821Z,55.00
2022-12-01T23:57:51.762Z,78.10
